createdAt,value
2023-05-05T00:01:25.023Z,5.43
2023-05-05T00:03:52.308Z,5.10
2023-05-05T00:06:19.374Z,4.93
2023-05-05T00:08:46.446Z,4.57
2023-05-05T00:11:13.413Z,5.80
2023-05-05T00:13:40.184Z,5.70
2023-05-05T00:16:07.113Z,5.10
2023-05-05T00:18:34.121Z,4.03
2023-05-05T00:21:01.109Z,4.63
2023-05-05T00:23:27.873Z,4.05
2023-05-05T00:25:54.601Z,3.80
2023-05-05T00:28:21.413Z,4.65
2023-05-05T00:30:48.175Z,4.13
2023-05-05T00:33:14.944Z,4.72
2023-05-05T00:35:41.732Z,5.05
2023-05-05T00:38:08.586Z,5.38
2023-05-05T00:40:36.227Z,4.90
2023-05-05T00:43:03.190Z,5.45
2023-05-05T00:45:30.136Z,5.13
2023-05-05T00:48:00.981Z,4.35
2023-05-05T00:50:30.517Z,4.80
2023-05-05T00:53:02.949Z,4.80
2023-05-05T00:55:30.792Z,3.90
2023-05-05T00:57:58.997Z,3.78
2023-05-05T01:00:27.114Z,4.40
2023-05-05T01:02:54.407Z,3.85
2023-05-05T01:05:23.916Z,4.28
2023-05-05T01:07:53.977Z,4.95
2023-05-05T01:10:41.075Z,4.60
2023-05-05T01:13:29.760Z,4.30
2023-05-05T01:16:12.665Z,4.10
2023-05-05T01:18:44.878Z,3.95
2023-05-05T01:21:19.805Z,3.85
2023-05-05T01:23:52.448Z,5.55
2023-05-05T01:26:50.289Z,4.53
2023-05-05T01:29:27.634Z,3.65
2023-05-05T01:31:59.817Z,3.35
2023-05-05T01:34:29.242Z,3.30
2023-05-05T01:37:04.776Z,3.17
2023-05-05T01:39:35.003Z,3.15
2023-05-05T01:42:08.915Z,3.50
2023-05-05T01:44:37.766Z,3.35
2023-05-05T01:47:06.513Z,3.25
2023-05-05T01:49:39.241Z,3.15
2023-05-05T01:52:06.844Z,3.40
2023-05-05T01:54:34.725Z,3.42
2023-05-05T01:57:05.202Z,3.17
2023-05-05T01:59:33.435Z,3.00
2023-05-05T02:02:02.107Z,3.25
2023-05-05T02:04:31.454Z,43.58
2023-05-05T02:06:59.623Z,3.08
2023-05-05T02:09:28.635Z,3.13
2023-05-05T02:11:58.431Z,3.22
2023-05-05T02:14:27.227Z,3.05
2023-05-05T02:16:56.496Z,3.05
2023-05-05T02:19:32.166Z,2.75
2023-05-05T02:21:59.000Z,3.30
2023-05-05T02:24:26.539Z,3.65
2023-05-05T02:26:55.016Z,3.03
2023-05-05T02:29:39.331Z,3.30
2023-05-05T02:32:14.428Z,3.75
2023-05-05T02:34:43.190Z,3.53
2023-05-05T02:37:12.611Z,3.35
2023-05-05T02:39:47.373Z,3.22
2023-05-05T02:42:20.067Z,3.33
2023-05-05T02:44:48.837Z,3.85
2023-05-05T02:47:15.774Z,4.07
2023-05-05T02:49:43.065Z,3.92
2023-05-05T02:52:09.993Z,3.00
2023-05-05T02:54:37.522Z,3.58
2023-05-05T02:57:04.464Z,3.08
2023-05-05T02:59:57.086Z,3.63
2023-05-05T03:02:27.340Z,3.63
2023-05-05T03:05:09.979Z,5.25
2023-05-05T03:07:48.996Z,3.85
2023-05-05T03:10:21.450Z,3.55
2023-05-05T03:12:55.313Z,3.30
2023-05-05T03:15:45.266Z,3.35
2023-05-05T03:18:15.527Z,3.42
2023-05-05T03:20:42.791Z,4.20
2023-05-05T03:23:10.343Z,3.30
2023-05-05T03:25:48.207Z,3.40
2023-05-05T03:28:16.201Z,3.42
2023-05-05T03:30:42.953Z,3.85
2023-05-05T03:33:10.678Z,3.40
2023-05-05T03:35:37.822Z,3.75
2023-05-05T03:38:04.494Z,3.60
2023-05-05T03:40:42.960Z,3.30
2023-05-05T03:43:11.000Z,3.10
2023-05-05T03:45:37.836Z,3.30
2023-05-05T03:48:04.916Z,3.20
2023-05-05T03:50:31.811Z,3.72
2023-05-05T03:52:58.394Z,4.03
2023-05-05T03:55:25.053Z,4.80
2023-05-05T03:57:51.761Z,4.78
2023-05-05T04:00:18.757Z,4.88
2023-05-05T04:02:45.641Z,3.88
2023-05-05T04:05:12.519Z,5.28
2023-05-05T04:07:39.328Z,4.60
2023-05-05T04:10:07.142Z,4.07
2023-05-05T04:12:34.120Z,3.78
2023-05-05T04:15:00.738Z,3.72
2023-05-05T04:17:27.320Z,4.78
2023-05-05T04:19:54.398Z,10.77
2023-05-05T04:22:21.236Z,7.20
2023-05-05T04:24:47.826Z,7.22
2023-05-05T04:27:14.520Z,13.30
2023-05-05T04:29:41.362Z,6.53
2023-05-05T04:32:07.931Z,9.23
2023-05-05T04:34:34.773Z,6.80
2023-05-05T04:37:01.513Z,6.13
2023-05-05T04:39:28.145Z,5.65
2023-05-05T04:41:54.776Z,5.68
2023-05-05T04:44:21.420Z,10.82
2023-05-05T04:46:48.053Z,9.63
2023-05-05T04:49:14.863Z,7.55
2023-05-05T04:51:42.413Z,5.30
2023-05-05T04:54:09.125Z,5.45
2023-05-05T04:56:36.042Z,5.05
2023-05-05T04:59:02.722Z,6.53
2023-05-05T05:01:29.417Z,4.80
2023-05-05T05:03:56.122Z,4.97
2023-05-05T05:06:23.014Z,5.25
2023-05-05T05:08:49.567Z,5.63
2023-05-05T05:11:16.459Z,4.63
2023-05-05T05:13:43.246Z,4.35
2023-05-05T05:16:09.956Z,5.40
2023-05-05T05:18:36.954Z,5.60
2023-05-05T05:21:03.734Z,5.40
2023-05-05T05:23:30.829Z,5.68
2023-05-05T05:25:57.731Z,7.90
2023-05-05T05:28:24.366Z,5.78
2023-05-05T05:30:52.124Z,5.78
2023-05-05T05:33:19.295Z,5.40
2023-05-05T05:35:46.290Z,5.38
2023-05-05T05:38:12.916Z,4.32
2023-05-05T05:40:39.770Z,5.70
2023-05-05T05:43:06.531Z,5.68
2023-05-05T05:45:33.211Z,5.55
2023-05-05T05:47:59.937Z,5.82
2023-05-05T05:50:28.705Z,5.35
2023-05-05T05:52:55.869Z,5.18
2023-05-05T05:55:22.678Z,4.88
2023-05-05T05:57:49.255Z,4.97
2023-05-05T06:00:16.199Z,5.93
2023-05-05T06:02:43.128Z,5.30
2023-05-05T06:05:10.592Z,5.28
2023-05-05T06:07:37.182Z,5.75
2023-05-05T06:10:18.514Z,7.45
2023-05-05T06:12:45.550Z,6.22
2023-05-05T06:15:13.833Z,6.93
2023-05-05T06:17:40.449Z,6.32
2023-05-05T06:20:07.827Z,5.72
2023-05-05T06:22:34.660Z,6.07
2023-05-05T06:25:01.236Z,5.50
2023-05-05T06:27:28.017Z,5.75
2023-05-05T06:29:54.627Z,6.95
2023-05-05T06:32:21.214Z,5.38
2023-05-05T06:34:48.344Z,5.07
2023-05-05T06:37:15.092Z,5.50
2023-05-05T06:39:41.753Z,4.28
2023-05-05T06:42:08.353Z,4.22
2023-05-05T06:44:36.642Z,4.15
2023-05-05T06:47:03.853Z,4.15
2023-05-05T06:49:30.532Z,4.07
2023-05-05T06:51:57.301Z,4.82
2023-05-05T06:54:23.953Z,4.82
2023-05-05T06:56:50.651Z,4.15
2023-05-05T06:59:19.892Z,4.18
2023-05-05T07:01:46.596Z,4.15
2023-05-05T07:04:13.235Z,4.32
2023-05-05T07:06:40.087Z,4.00
2023-05-05T07:09:06.752Z,4.03
2023-05-05T07:11:33.594Z,4.25
2023-05-05T07:14:00.482Z,3.80
2023-05-05T07:16:27.452Z,4.40
2023-05-05T07:18:54.284Z,3.55
2023-05-05T07:21:21.152Z,3.95
2023-05-05T07:23:48.007Z,3.67
2023-05-05T07:26:15.349Z,3.05
2023-05-05T07:28:43.247Z,2.80
2023-05-05T07:31:09.997Z,3.80
2023-05-05T07:33:36.614Z,4.15
2023-05-05T07:36:03.940Z,2.42
2023-05-05T07:38:30.602Z,2.42
2023-05-05T07:40:57.215Z,2.30
2023-05-05T07:43:24.138Z,3.13
2023-05-05T07:45:51.074Z,3.10
2023-05-05T07:48:17.859Z,3.42
2023-05-05T07:50:44.711Z,3.90
2023-05-05T07:53:14.972Z,4.43
2023-05-05T07:55:42.465Z,3.90
2023-05-05T07:58:11.212Z,4.05
2023-05-05T08:00:38.502Z,3.60
2023-05-05T08:03:05.299Z,3.15
2023-05-05T08:05:32.240Z,3.22
2023-05-05T08:07:58.883Z,4.13
2023-05-05T08:10:25.535Z,3.55
2023-05-05T08:12:52.533Z,3.00
2023-05-05T08:15:19.225Z,3.25
2023-05-05T08:17:48.064Z,3.13
2023-05-05T08:20:19.330Z,2.85
2023-05-05T08:22:46.890Z,2.90
2023-05-05T08:25:14.428Z,4.00
2023-05-05T08:27:42.864Z,4.13
2023-05-05T08:30:10.116Z,4.25
2023-05-05T08:32:36.950Z,3.88
2023-05-05T08:35:05.339Z,3.63
2023-05-05T08:37:32.537Z,3.22
2023-05-05T08:39:59.230Z,3.00
2023-05-05T08:42:37.183Z,3.60
2023-05-05T08:45:05.978Z,3.00
2023-05-05T08:47:33.541Z,3.72
2023-05-05T08:50:01.927Z,4.00
2023-05-05T08:52:38.526Z,2.50
2023-05-05T08:55:18.086Z,3.00
2023-05-05T08:57:56.216Z,3.10
2023-05-05T09:00:23.928Z,2.92
2023-05-05T09:02:51.035Z,3.10
2023-05-05T09:05:18.302Z,2.70
2023-05-05T09:07:46.826Z,2.25
2023-05-05T09:10:13.776Z,2.40
2023-05-05T09:12:42.588Z,2.40
2023-05-05T09:15:11.680Z,1.60
2023-05-05T09:17:39.658Z,1.67
2023-05-05T09:20:12.091Z,1.55
2023-05-05T09:22:43.452Z,1.77
2023-05-05T09:25:14.836Z,1.58
2023-05-05T09:27:47.479Z,1.60
2023-05-05T09:30:23.546Z,1.50
2023-05-05T09:32:55.352Z,1.52
2023-05-05T09:35:23.148Z,1.63
2023-05-05T09:37:50.229Z,1.50
2023-05-05T09:40:18.831Z,1.40
2023-05-05T09:42:46.009Z,1.35
2023-05-05T09:45:19.007Z,1.50
2023-05-05T09:47:49.403Z,1.45
2023-05-05T09:50:19.043Z,1.50
2023-05-05T09:53:03.076Z,1.40
2023-05-05T09:55:32.952Z,1.40
2023-05-05T09:58:18.979Z,1.52
2023-05-05T10:00:46.578Z,1.27
2023-05-05T10:03:13.782Z,1.10
2023-05-05T10:05:48.149Z,1.20
2023-05-05T10:08:15.111Z,1.17
2023-05-05T10:10:53.662Z,1.20
2023-05-05T10:13:22.817Z,1.30
2023-05-05T10:15:52.069Z,1.30
2023-05-05T10:18:27.157Z,1.10
2023-05-05T10:20:58.813Z,1.20
2023-05-05T10:23:49.646Z,1.30
2023-05-05T10:26:18.607Z,1.58
2023-05-05T10:28:51.414Z,1.20
2023-05-05T10:31:26.535Z,1.10
2023-05-05T10:34:04.260Z,1.10
2023-05-05T10:36:31.949Z,1.10
2023-05-05T10:39:00.673Z,1.10
2023-05-05T10:41:29.039Z,1.02
2023-05-05T10:44:00.409Z,0.90
2023-05-05T10:46:29.420Z,0.90
2023-05-05T10:49:02.006Z,1.05
2023-05-05T10:51:53.841Z,1.00
2023-05-05T10:54:30.469Z,0.90
2023-05-05T10:57:01.588Z,0.95
2023-05-05T10:59:37.963Z,0.90
2023-05-05T11:02:21.617Z,1.00
2023-05-05T11:05:07.422Z,1.00
2023-05-05T11:07:37.580Z,1.17
2023-05-05T11:10:06.349Z,1.02
2023-05-05T11:12:50.062Z,0.90
2023-05-05T11:15:31.931Z,0.93
2023-05-05T11:17:59.904Z,0.90
2023-05-05T11:20:36.377Z,1.00
2023-05-05T11:23:03.308Z,1.10
2023-05-05T11:25:41.073Z,0.90
2023-05-05T11:28:15.538Z,1.15
2023-05-05T11:31:00.598Z,1.00
2023-05-05T11:33:38.521Z,0.95
2023-05-05T11:36:09.185Z,1.10
2023-05-05T11:38:48.687Z,1.02
2023-05-05T11:41:34.857Z,1.00
2023-05-05T11:44:12.384Z,0.95
2023-05-05T11:47:05.113Z,0.98
2023-05-05T11:49:33.875Z,1.10
2023-05-05T11:52:05.735Z,1.20
2023-05-05T11:54:34.729Z,0.95
2023-05-05T11:57:05.053Z,0.90
2023-05-05T11:59:32.512Z,1.20
2023-05-05T12:01:59.868Z,1.30
2023-05-05T12:04:26.675Z,1.00
2023-05-05T12:06:55.529Z,1.13
2023-05-05T12:09:23.084Z,1.00
2023-05-05T12:11:56.511Z,1.08
2023-05-05T12:14:25.346Z,1.02
2023-05-05T12:17:01.322Z,1.02
2023-05-05T12:19:30.453Z,1.10
2023-05-05T12:21:57.247Z,1.10
2023-05-05T12:24:24.069Z,0.93
2023-05-05T12:26:51.908Z,1.15
2023-05-05T12:29:26.182Z,0.80
2023-05-05T12:31:53.086Z,0.90
2023-05-05T12:34:21.328Z,1.00
2023-05-05T12:36:48.164Z,1.10
2023-05-05T12:39:15.077Z,1.10
2023-05-05T12:41:42.110Z,1.17
2023-05-05T12:44:08.716Z,1.20
2023-05-05T12:46:46.103Z,1.00
2023-05-05T12:49:12.906Z,1.02
2023-05-05T12:51:39.570Z,1.00
2023-05-05T12:54:10.380Z,1.17
2023-05-05T12:56:45.556Z,1.00
2023-05-05T12:59:28.616Z,1.00
2023-05-05T13:01:57.123Z,1.15
2023-05-05T13:04:28.045Z,0.90
2023-05-05T13:07:15.181Z,1.10
2023-05-05T13:09:42.434Z,1.02
2023-05-05T13:12:11.991Z,1.00
2023-05-05T13:14:39.964Z,1.02
2023-05-05T13:17:06.886Z,1.30
2023-05-05T13:19:35.746Z,0.98
2023-05-05T13:22:02.447Z,1.00
2023-05-05T13:24:42.751Z,0.95
2023-05-05T13:27:16.794Z,1.00
2023-05-05T13:29:43.857Z,0.90
2023-05-05T13:32:10.508Z,1.15
2023-05-05T13:34:39.327Z,1.00
2023-05-05T13:37:06.555Z,1.15
2023-05-05T13:39:33.329Z,1.00
2023-05-05T13:42:00.853Z,6.43
2023-05-05T13:44:27.516Z,0.90
2023-05-05T13:46:54.289Z,1.65
2023-05-05T13:49:21.050Z,3.53
2023-05-05T13:51:47.879Z,1.10
2023-05-05T13:54:14.527Z,1.33
2023-05-05T13:56:41.426Z,1.10
2023-05-05T13:59:08.154Z,0.90
2023-05-05T14:01:35.018Z,1.05
2023-05-05T14:04:05.182Z,1.08
2023-05-05T14:06:32.810Z,1.08
2023-05-05T14:08:59.487Z,1.50
2023-05-05T14:11:26.488Z,1.00
2023-05-05T14:13:53.280Z,1.33
2023-05-05T14:16:19.904Z,1.17
2023-05-05T14:18:46.682Z,0.95
2023-05-05T14:21:13.577Z,1.10
2023-05-05T14:23:40.327Z,1.27
2023-05-05T14:26:08.993Z,1.10
2023-05-05T14:28:36.142Z,1.15
2023-05-05T14:31:02.828Z,1.10
2023-05-05T14:33:29.548Z,1.17
2023-05-05T14:35:56.217Z,1.00
2023-05-05T14:38:23.126Z,1.13
2023-05-05T14:40:49.911Z,1.20
2023-05-05T14:43:16.655Z,1.10
2023-05-05T14:45:44.336Z,1.30
2023-05-05T14:48:14.509Z,1.17
2023-05-05T14:50:42.519Z,1.40
2023-05-05T14:53:12.378Z,1.23
2023-05-05T14:55:39.243Z,1.30
2023-05-05T14:58:05.967Z,1.10
2023-05-05T15:00:32.628Z,1.27
2023-05-05T15:02:59.468Z,1.20
2023-05-05T15:05:26.229Z,1.00
2023-05-05T15:07:52.825Z,1.40
2023-05-05T15:10:21.823Z,1.20
2023-05-05T15:12:49.229Z,1.10
2023-05-05T15:15:15.906Z,1.15
2023-05-05T15:17:43.447Z,1.30
2023-05-05T15:20:10.602Z,1.60
2023-05-05T15:22:37.244Z,1.85
2023-05-05T15:25:04.350Z,1.50
2023-05-05T15:27:31.799Z,1.35
2023-05-05T15:29:58.447Z,2.10
2023-05-05T15:32:25.498Z,3.55
2023-05-05T15:34:52.286Z,3.60
2023-05-05T15:37:18.858Z,2.38
2023-05-05T15:39:45.549Z,1.90
2023-05-05T15:42:12.234Z,2.38
2023-05-05T15:44:38.866Z,2.00
2023-05-05T15:47:07.198Z,1.85
2023-05-05T15:49:34.350Z,1.60
2023-05-05T15:52:01.055Z,1.73
2023-05-05T15:54:27.970Z,1.52
2023-05-05T15:56:55.075Z,2.10
2023-05-05T15:59:22.616Z,2.05
2023-05-05T16:01:49.332Z,2.28
2023-05-05T16:04:16.178Z,1.70
2023-05-05T16:06:42.906Z,1.92
2023-05-05T16:09:10.295Z,1.75
2023-05-05T16:11:40.147Z,1.65
2023-05-05T16:14:06.823Z,1.70
2023-05-05T16:16:33.793Z,1.65
2023-05-05T16:19:00.934Z,1.83
2023-05-05T16:21:27.802Z,1.85
2023-05-05T16:23:54.745Z,1.90
2023-05-05T16:26:21.671Z,1.55
2023-05-05T16:28:48.664Z,2.15
2023-05-05T16:31:15.817Z,1.90
2023-05-05T16:33:43.722Z,1.90
2023-05-05T16:36:12.371Z,1.80
2023-05-05T16:38:40.018Z,1.83
2023-05-05T16:41:07.251Z,2.00
2023-05-05T16:43:34.453Z,2.13
2023-05-05T16:46:01.395Z,2.03
2023-05-05T16:48:28.189Z,2.20
2023-05-05T16:50:57.237Z,2.08
2023-05-05T16:53:24.406Z,2.00
2023-05-05T16:55:52.528Z,2.45
2023-05-05T16:58:20.499Z,1.95
2023-05-05T17:00:49.334Z,1.52
2023-05-05T17:03:20.595Z,1.88
2023-05-05T17:05:50.241Z,1.98
2023-05-05T17:08:17.539Z,1.92
2023-05-05T17:10:45.315Z,1.90
2023-05-05T17:13:14.420Z,2.30
2023-05-05T17:15:41.808Z,2.65
2023-05-05T17:18:08.867Z,2.75
2023-05-05T17:20:36.454Z,2.95
2023-05-05T17:23:09.002Z,3.13
2023-05-05T17:25:36.057Z,3.22
2023-05-05T17:28:02.976Z,3.03
2023-05-05T17:30:29.893Z,3.00
2023-05-05T17:32:56.945Z,3.70
2023-05-05T17:35:23.912Z,3.50
2023-05-05T17:37:51.371Z,2.90
2023-05-05T17:40:18.048Z,2.65
2023-05-05T17:42:44.711Z,2.60
2023-05-05T17:45:11.930Z,2.97
2023-05-05T17:47:38.877Z,3.08
2023-05-05T17:50:06.167Z,2.63
2023-05-05T17:52:33.016Z,2.60
2023-05-05T17:54:59.606Z,3.03
2023-05-05T17:57:26.470Z,2.53
2023-05-05T17:59:53.777Z,3.05
2023-05-05T18:02:21.442Z,5.80
2023-05-05T18:04:48.231Z,6.32
2023-05-05T18:07:15.366Z,6.82
2023-05-05T18:09:42.361Z,4.55
2023-05-05T18:12:09.484Z,4.65
2023-05-05T18:14:36.876Z,5.43
2023-05-05T18:17:04.819Z,6.05
2023-05-05T18:19:31.745Z,5.10
2023-05-05T18:21:59.367Z,6.07
2023-05-05T18:24:26.283Z,6.15
2023-05-05T18:26:58.810Z,5.53
2023-05-05T18:29:25.946Z,6.28
2023-05-05T18:31:54.718Z,4.72
2023-05-05T18:34:21.978Z,4.18
2023-05-05T18:36:51.480Z,5.50
2023-05-05T18:39:18.150Z,4.07
2023-05-05T18:41:44.835Z,4.40
2023-05-05T18:44:11.729Z,2.88
2023-05-05T18:46:38.443Z,4.10
2023-05-05T18:49:05.264Z,4.57
2023-05-05T18:51:32.479Z,3.03
2023-05-05T18:54:00.900Z,3.35
2023-05-05T18:56:27.786Z,3.03
2023-05-05T18:58:54.456Z,3.15
2023-05-05T19:01:21.354Z,3.85
2023-05-05T19:03:48.264Z,4.00
2023-05-05T19:06:16.118Z,3.83
2023-05-05T19:08:43.468Z,3.67
2023-05-05T19:11:10.207Z,4.05
2023-05-05T19:16:04.932Z,7.00
2023-05-05T19:18:31.633Z,4.32
2023-05-05T19:20:58.404Z,4.45
2023-05-05T19:23:25.120Z,4.35
2023-05-05T19:25:52.886Z,3.80
2023-05-05T19:28:19.948Z,4.22
2023-05-05T19:30:48.545Z,4.88
2023-05-05T19:33:15.990Z,4.45
2023-05-05T19:35:43.661Z,4.03
2023-05-05T19:38:10.382Z,4.00
2023-05-05T19:40:40.246Z,5.60
2023-05-05T19:43:07.915Z,6.38
2023-05-05T19:45:34.950Z,4.90
2023-05-05T19:48:02.093Z,5.95
2023-05-05T19:50:30.493Z,5.82
2023-05-05T19:52:57.824Z,5.00
2023-05-05T19:55:24.546Z,5.72
2023-05-05T19:57:51.739Z,5.82
2023-05-05T20:00:19.670Z,5.97
2023-05-05T20:02:46.527Z,6.93
2023-05-05T20:05:17.966Z,8.40
2023-05-05T20:07:46.405Z,12.07
2023-05-05T20:10:13.563Z,13.30
2023-05-05T20:12:47.766Z,14.98
2023-05-05T20:15:18.708Z,12.88
2023-05-05T20:17:46.943Z,14.10
2023-05-05T20:20:20.074Z,21.13
2023-05-05T20:22:47.960Z,27.70
2023-05-05T20:25:16.324Z,20.63
2023-05-05T20:27:44.287Z,14.52
2023-05-05T20:30:12.262Z,33.83
2023-05-05T20:32:39.440Z,18.05
2023-05-05T20:35:07.654Z,16.35
2023-05-05T20:37:34.620Z,18.98
2023-05-05T20:40:01.322Z,20.50
2023-05-05T20:42:29.921Z,19.85
2023-05-05T20:44:57.047Z,16.98
2023-05-05T20:47:24.363Z,20.00
2023-05-05T20:49:52.641Z,19.45
2023-05-05T20:52:19.531Z,17.48
2023-05-05T20:54:46.247Z,17.25
2023-05-05T20:57:13.169Z,16.40
2023-05-05T20:59:40.012Z,16.20
2023-05-05T21:02:07.279Z,16.15
2023-05-05T21:04:34.047Z,14.15
2023-05-05T21:07:01.033Z,13.68
2023-05-05T21:09:27.635Z,15.35
2023-05-05T21:11:54.455Z,14.50
2023-05-05T21:14:21.258Z,12.60
2023-05-05T21:16:48.783Z,12.07
2023-05-05T21:19:16.623Z,12.50
2023-05-05T21:21:43.422Z,12.13
2023-05-05T21:24:10.651Z,13.00
2023-05-05T21:26:37.697Z,13.13
2023-05-05T21:29:04.337Z,11.73
2023-05-05T21:31:31.057Z,11.15
2023-05-05T21:33:58.025Z,9.95
2023-05-05T21:36:24.841Z,11.60
2023-05-05T21:38:51.556Z,10.65
2023-05-05T21:41:18.603Z,9.82
2023-05-05T21:43:45.337Z,9.20
2023-05-05T21:46:12.291Z,9.98
2023-05-05T21:48:40.438Z,8.73
2023-05-05T21:51:07.659Z,8.98
2023-05-05T21:53:34.614Z,8.73
2023-05-05T21:56:01.773Z,8.40
2023-05-05T21:58:29.198Z,7.13
2023-05-05T22:00:55.896Z,6.68
2023-05-05T22:03:22.856Z,6.20
2023-05-05T22:05:49.559Z,6.65
2023-05-05T22:08:16.197Z,5.63
2023-05-05T22:10:42.940Z,5.00
2023-05-05T22:13:14.557Z,5.18
2023-05-05T22:15:46.533Z,3.97
2023-05-05T22:18:14.638Z,4.32
2023-05-05T22:20:41.397Z,4.00
2023-05-05T22:23:08.147Z,3.80
2023-05-05T22:25:35.438Z,3.80
2023-05-05T22:28:02.355Z,3.72
2023-05-05T22:30:28.989Z,3.50
2023-05-05T22:32:56.053Z,3.05
2023-05-05T22:35:22.882Z,3.58
2023-05-05T22:37:49.575Z,3.33
2023-05-05T22:40:16.498Z,3.53
2023-05-05T22:42:43.155Z,3.50
2023-05-05T22:45:10.417Z,3.60
2023-05-05T22:47:37.759Z,3.38
2023-05-05T22:50:04.575Z,3.65
2023-05-05T22:52:31.573Z,3.60
2023-05-05T22:54:58.542Z,3.17
2023-05-05T22:57:25.238Z,3.13
2023-05-05T22:59:52.140Z,3.03
2023-05-05T23:02:19.005Z,3.30
2023-05-05T23:04:45.912Z,3.00
2023-05-05T23:07:13.092Z,3.58
2023-05-05T23:09:40.842Z,3.60
2023-05-05T23:12:07.559Z,3.60
2023-05-05T23:14:35.328Z,3.22
2023-05-05T23:17:02.200Z,3.28
2023-05-05T23:19:32.734Z,3.30
2023-05-05T23:21:59.848Z,3.30
2023-05-05T23:24:27.718Z,3.35
2023-05-05T23:26:54.947Z,3.60
2023-05-05T23:29:21.523Z,3.50
2023-05-05T23:31:48.440Z,3.65
2023-05-05T23:34:15.049Z,3.65
2023-05-05T23:36:41.652Z,3.50
2023-05-05T23:39:08.957Z,3.58
2023-05-05T23:41:35.623Z,3.42
2023-05-05T23:44:02.505Z,2.90
2023-05-05T23:46:29.664Z,3.25
2023-05-05T23:48:56.805Z,3.28
2023-05-05T23:51:23.554Z,3.63
2023-05-05T23:53:50.452Z,3.42
2023-05-05T23:56:17.029Z,3.05
2023-05-05T23:58:43.692Z,2.90
